createdAt,value
2018-01-29T00:01:50.736Z,6.97
2018-01-29T00:04:17.356Z,6.63
2018-01-29T00:06:44.358Z,8.23
2018-01-29T00:09:11.034Z,8.37
2018-01-29T00:11:38.064Z,9.43
2018-01-29T00:14:04.702Z,6.93
2018-01-29T00:16:31.340Z,9.30
2018-01-29T00:18:57.951Z,6.23
2018-01-29T00:21:24.612Z,8.30
2018-01-29T00:23:51.221Z,6.57
2018-01-29T00:26:17.855Z,5.53
2018-01-29T00:28:44.497Z,6.00
2018-01-29T00:31:11.225Z,4.70
2018-01-29T00:33:51.755Z,5.20
2018-01-29T00:36:18.839Z,6.23
2018-01-29T00:38:45.421Z,8.27
2018-01-29T00:41:12.491Z,9.20
2018-01-29T00:43:39.485Z,6.47
2018-01-29T00:46:06.110Z,6.43
2018-01-29T00:48:32.774Z,5.63
2018-01-29T00:50:59.375Z,8.33
2018-01-29T00:53:29.425Z,6.90
2018-01-29T00:56:17.038Z,9.67
2018-01-29T00:58:43.736Z,6.73
2018-01-29T01:01:10.851Z,8.73
2018-01-29T01:03:42.927Z,5.33
2018-01-29T01:06:09.503Z,8.80
2018-01-29T01:08:37.075Z,7.00
2018-01-29T01:11:04.042Z,5.80
2018-01-29T01:13:30.740Z,5.33
2018-01-29T01:15:57.373Z,4.67
2018-01-29T01:18:24.396Z,5.93
2018-01-29T01:20:51.047Z,6.33
2018-01-29T01:23:17.623Z,7.27
2018-01-29T01:25:44.258Z,5.37
2018-01-29T01:28:10.907Z,6.20
2018-01-29T01:30:37.544Z,8.70
2018-01-29T01:33:04.189Z,8.73
2018-01-29T01:35:30.786Z,7.43
2018-01-29T01:37:57.866Z,4.63
2018-01-29T01:40:24.500Z,9.03
2018-01-29T01:42:51.098Z,7.37
2018-01-29T01:45:17.974Z,5.37
2018-01-29T01:47:44.579Z,7.67
2018-01-29T01:50:11.208Z,7.90
2018-01-29T01:52:37.869Z,6.13
2018-01-29T01:55:04.909Z,7.77
2018-01-29T01:57:31.942Z,6.67
2018-01-29T02:00:03.069Z,5.03
2018-01-29T02:02:41.505Z,6.53
2018-01-29T02:05:08.090Z,4.10
2018-01-29T02:07:34.684Z,3.63
2018-01-29T02:10:01.334Z,5.37
2018-01-29T02:12:28.356Z,4.00
2018-01-29T02:14:55.069Z,4.30
2018-01-29T02:17:21.680Z,4.90
2018-01-29T02:19:48.233Z,4.53
2018-01-29T02:22:14.839Z,4.57
2018-01-29T02:24:42.212Z,5.20
2018-01-29T02:27:08.819Z,5.53
2018-01-29T02:29:35.775Z,4.43
2018-01-29T02:32:02.794Z,4.97
2018-01-29T02:34:29.402Z,5.77
2018-01-29T02:36:56.095Z,5.03
2018-01-29T02:39:23.143Z,3.73
2018-01-29T02:41:50.147Z,5.50
2018-01-29T02:44:16.759Z,3.63
2018-01-29T02:46:43.454Z,4.50
2018-01-29T02:49:10.755Z,5.10
2018-01-29T02:51:37.346Z,3.83
2018-01-29T02:54:04.365Z,7.43
2018-01-29T02:56:51.181Z,3.20
2018-01-29T02:59:17.838Z,2.70
2018-01-29T03:01:44.469Z,2.73
2018-01-29T03:04:11.514Z,5.80
2018-01-29T03:06:41.878Z,5.20
2018-01-29T03:09:08.484Z,4.30
2018-01-29T03:11:35.070Z,2.93
2018-01-29T03:14:01.676Z,3.93
2018-01-29T03:16:28.806Z,3.77
2018-01-29T03:18:55.382Z,3.33
2018-01-29T03:21:22.928Z,2.23
2018-01-29T03:23:50.242Z,4.80
2018-01-29T03:26:16.840Z,5.10
2018-01-29T03:28:43.411Z,1.93
2018-01-29T03:31:10.033Z,2.83
2018-01-29T03:33:36.654Z,4.37
2018-01-29T03:36:03.247Z,4.67
2018-01-29T03:38:29.895Z,3.20
2018-01-29T03:40:56.934Z,4.60
2018-01-29T03:43:23.567Z,3.00
2018-01-29T03:45:50.209Z,4.90
2018-01-29T03:48:16.854Z,3.97
2018-01-29T03:50:43.883Z,4.80
2018-01-29T03:53:33.806Z,3.93
2018-01-29T03:56:00.433Z,5.97
2018-01-29T03:58:27.085Z,8.33
2018-01-29T04:00:53.699Z,6.87
2018-01-29T04:03:20.298Z,8.97
2018-01-29T04:05:49.126Z,9.20
2018-01-29T04:08:18.978Z,7.67
2018-01-29T04:10:45.646Z,9.50
2018-01-29T04:13:12.578Z,4.90
2018-01-29T04:15:39.176Z,9.90
2018-01-29T04:18:06.191Z,4.87
2018-01-29T04:20:33.321Z,6.40
2018-01-29T04:22:59.931Z,8.77
2018-01-29T04:25:26.550Z,6.93
2018-01-29T04:27:53.581Z,8.33
2018-01-29T04:30:20.581Z,4.37
2018-01-29T04:32:47.245Z,5.93
2018-01-29T04:35:26.772Z,8.07
2018-01-29T04:37:53.409Z,7.23
2018-01-29T04:40:20.049Z,4.27
2018-01-29T04:42:46.688Z,6.70
2018-01-29T04:45:13.613Z,3.73
2018-01-29T04:47:58.061Z,5.83
2018-01-29T04:50:24.662Z,4.37
2018-01-29T04:52:51.279Z,5.60
2018-01-29T04:55:18.177Z,2.60
2018-01-29T04:57:52.088Z,2.63
2018-01-29T05:00:19.005Z,3.53
2018-01-29T05:02:45.991Z,4.10
2018-01-29T05:05:12.591Z,3.33
2018-01-29T05:07:39.683Z,5.17
2018-01-29T05:10:06.244Z,4.27
2018-01-29T05:12:32.868Z,5.23
2018-01-29T05:14:59.524Z,3.33
2018-01-29T05:17:26.133Z,3.43
2018-01-29T05:19:52.775Z,2.10
2018-01-29T05:22:19.347Z,3.97
2018-01-29T05:24:46.047Z,3.57
2018-01-29T05:27:12.638Z,3.87
2018-01-29T05:29:39.665Z,2.83
2018-01-29T05:32:06.300Z,3.20
2018-01-29T05:34:32.941Z,3.00
2018-01-29T05:40:04.255Z,2.70
2018-01-29T05:42:30.857Z,2.20
2018-01-29T05:45:03.487Z,2.20
2018-01-29T05:47:30.501Z,1.53
2018-01-29T05:49:57.472Z,2.30
2018-01-29T05:52:24.033Z,3.60
2018-01-29T05:54:50.629Z,2.57
2018-01-29T05:57:17.179Z,1.57
2018-01-29T05:59:45.698Z,3.20
2018-01-29T06:02:12.282Z,2.17
2018-01-29T06:04:38.826Z,3.20
2018-01-29T06:07:05.392Z,1.63
2018-01-29T06:09:31.962Z,3.23
2018-01-29T06:11:58.551Z,1.97
2018-01-29T06:14:25.101Z,1.73
2018-01-29T06:16:51.699Z,2.80
2018-01-29T06:19:18.239Z,3.07
2018-01-29T06:21:44.864Z,2.40
2018-01-29T06:24:11.815Z,2.00
2018-01-29T06:26:38.796Z,1.43
2018-01-29T06:29:05.380Z,1.93
2018-01-29T06:31:32.336Z,1.87
2018-01-29T06:33:59.315Z,2.40
2018-01-29T06:36:25.851Z,1.60
2018-01-29T06:38:56.441Z,2.00
2018-01-29T06:41:35.966Z,1.90
2018-01-29T06:44:02.528Z,1.80
2018-01-29T06:46:29.467Z,1.90
2018-01-29T06:48:56.455Z,1.53
2018-01-29T06:51:23.012Z,2.67
2018-01-29T06:53:49.636Z,0.93
2018-01-29T06:56:20.096Z,1.03
2018-01-29T06:58:46.622Z,1.80
2018-01-29T07:01:13.232Z,2.00
2018-01-29T07:03:39.801Z,2.20
2018-01-29T07:06:06.373Z,2.33
2018-01-29T07:08:32.956Z,1.97
2018-01-29T07:10:59.494Z,1.87
2018-01-29T07:13:26.022Z,2.60
2018-01-29T07:15:52.627Z,2.17
2018-01-29T07:18:19.174Z,2.07
2018-01-29T07:20:45.742Z,1.90
2018-01-29T07:23:12.625Z,2.07
2018-01-29T07:25:39.617Z,2.47
2018-01-29T07:28:06.164Z,2.23
2018-01-29T07:30:32.803Z,1.80
2018-01-29T07:32:59.377Z,2.10
2018-01-29T07:35:25.940Z,2.10
2018-01-29T07:37:55.549Z,1.27
2018-01-29T07:40:25.382Z,1.93
2018-01-29T07:42:52.277Z,1.83
2018-01-29T07:45:18.861Z,1.93
2018-01-29T07:48:02.678Z,2.27
2018-01-29T07:50:29.226Z,2.13
2018-01-29T07:52:55.810Z,2.07
2018-01-29T07:55:22.389Z,1.37
2018-01-29T07:57:48.947Z,1.20
2018-01-29T08:00:15.926Z,1.80
2018-01-29T08:02:42.476Z,1.70
2018-01-29T08:05:09.030Z,1.50
2018-01-29T08:07:36.054Z,2.57
2018-01-29T08:10:02.740Z,1.87
2018-01-29T08:12:29.314Z,2.03
2018-01-29T08:14:59.953Z,2.27
2018-01-29T08:17:26.519Z,1.70
2018-01-29T08:19:53.496Z,1.13
2018-01-29T08:22:20.409Z,1.60
2018-01-29T08:24:47.426Z,1.83
2018-01-29T08:27:14.020Z,1.37
2018-01-29T08:29:40.857Z,2.03
2018-01-29T08:32:07.398Z,0.90
2018-01-29T08:34:33.930Z,1.60
2018-01-29T08:37:00.538Z,2.13
2018-01-29T08:39:27.107Z,2.17
2018-01-29T08:41:53.659Z,1.03
2018-01-29T08:44:20.292Z,2.23
2018-01-29T08:46:47.759Z,1.30
2018-01-29T08:49:14.650Z,1.70
2018-01-29T08:51:41.216Z,1.70
2018-01-29T08:54:07.787Z,0.87
2018-01-29T08:56:34.714Z,1.50
2018-01-29T08:59:01.242Z,1.70
2018-01-29T09:01:27.811Z,1.60
2018-01-29T09:03:54.417Z,0.90
2018-01-29T09:09:31.802Z,1.77
2018-01-29T09:11:58.730Z,1.60
2018-01-29T09:14:25.703Z,1.37
2018-01-29T09:16:52.256Z,1.83
2018-01-29T09:19:18.800Z,1.83
2018-01-29T09:21:45.403Z,1.83
2018-01-29T09:24:12.383Z,1.60
2018-01-29T09:26:38.985Z,2.03
2018-01-29T09:29:05.602Z,1.53
2018-01-29T09:31:32.178Z,1.27
2018-01-29T09:33:58.760Z,0.93
2018-01-29T09:36:25.373Z,1.20
2018-01-29T09:39:16.000Z,1.63
2018-01-29T09:41:42.610Z,1.33
2018-01-29T09:44:09.201Z,1.33
2018-01-29T09:46:36.608Z,1.50
2018-01-29T09:49:17.593Z,2.07
2018-01-29T09:51:44.246Z,1.73
2018-01-29T09:54:10.884Z,1.00
2018-01-29T09:56:37.497Z,0.47
2018-01-29T09:59:04.142Z,1.53
2018-01-29T10:01:30.754Z,1.40
2018-01-29T10:03:57.389Z,1.00
2018-01-29T10:06:24.038Z,1.20
2018-01-29T10:08:50.643Z,1.93
2018-01-29T10:11:17.649Z,1.50
2018-01-29T10:13:44.231Z,1.33
2018-01-29T10:16:10.840Z,0.30
2018-01-29T10:18:37.469Z,2.00
2018-01-29T10:21:04.032Z,2.33
2018-01-29T10:23:31.064Z,1.97
2018-01-29T10:25:57.671Z,1.90
2018-01-29T10:28:24.274Z,1.17
2018-01-29T10:30:51.154Z,1.07
2018-01-29T10:33:17.752Z,1.33
2018-01-29T10:35:44.339Z,1.83
2018-01-29T10:38:11.265Z,1.77
2018-01-29T10:40:37.897Z,1.63
2018-01-29T10:43:04.478Z,2.43
2018-01-29T10:45:31.079Z,1.50
2018-01-29T10:47:57.713Z,1.13
2018-01-29T10:50:31.103Z,1.13
2018-01-29T10:53:10.409Z,1.50
2018-01-29T10:55:37.090Z,0.90
2018-01-29T10:58:06.962Z,2.13
2018-01-29T11:00:39.148Z,0.67
2018-01-29T11:03:05.752Z,1.63
2018-01-29T11:05:32.804Z,1.70
2018-01-29T11:07:59.790Z,0.70
2018-01-29T11:10:26.424Z,1.40
2018-01-29T11:12:53.013Z,1.80
2018-01-29T11:15:20.059Z,1.00
2018-01-29T11:17:51.459Z,0.60
2018-01-29T11:20:18.043Z,1.40
2018-01-29T11:22:44.686Z,0.67
2018-01-29T11:25:11.408Z,0.87
2018-01-29T11:27:37.996Z,1.27
2018-01-29T11:30:04.659Z,0.70
2018-01-29T11:32:31.262Z,2.13
2018-01-29T11:34:57.828Z,1.33
2018-01-29T11:37:24.436Z,1.40
2018-01-29T11:39:51.078Z,1.97
2018-01-29T11:42:17.725Z,1.30
2018-01-29T11:44:44.414Z,1.30
2018-01-29T11:47:11.195Z,2.03
2018-01-29T11:49:38.053Z,1.70
2018-01-29T11:52:04.640Z,1.57
2018-01-29T11:54:31.254Z,1.17
2018-01-29T11:56:58.185Z,1.87
2018-01-29T11:59:24.784Z,2.40
2018-01-29T12:01:51.836Z,2.23
2018-01-29T12:04:18.497Z,1.70
2018-01-29T12:06:45.116Z,2.07
2018-01-29T12:09:11.825Z,1.60
2018-01-29T12:11:38.533Z,2.33
2018-01-29T12:14:05.165Z,1.87
2018-01-29T12:16:31.787Z,0.80
2018-01-29T12:18:58.395Z,1.67
2018-01-29T12:21:25.461Z,2.17
2018-01-29T12:23:52.150Z,1.50
2018-01-29T12:26:18.820Z,1.97
2018-01-29T12:28:45.873Z,2.53
2018-01-29T12:31:23.026Z,1.20
2018-01-29T12:33:49.692Z,1.90
2018-01-29T12:36:16.701Z,2.20
2018-01-29T12:38:43.323Z,1.97
2018-01-29T12:41:10.011Z,1.73
2018-01-29T12:43:37.033Z,1.30
2018-01-29T12:46:03.692Z,1.60
2018-01-29T12:48:30.359Z,1.97
2018-01-29T12:50:57.011Z,1.43
2018-01-29T12:53:23.625Z,1.60
2018-01-29T12:55:50.644Z,1.27
2018-01-29T12:58:17.301Z,1.47
2018-01-29T13:00:44.306Z,1.43
2018-01-29T13:03:11.016Z,1.20
2018-01-29T13:05:37.719Z,2.20
2018-01-29T13:08:04.463Z,1.30
2018-01-29T13:10:31.481Z,1.83
2018-01-29T13:12:58.084Z,1.97
2018-01-29T13:15:24.777Z,1.37
2018-01-29T13:17:51.411Z,1.43
2018-01-29T13:20:18.042Z,2.10
2018-01-29T13:25:36.713Z,1.30
2018-01-29T13:28:03.348Z,1.17
2018-01-29T13:30:30.021Z,1.17
2018-01-29T13:32:56.690Z,1.33
2018-01-29T13:35:23.271Z,1.67
2018-01-29T13:37:49.889Z,1.70
2018-01-29T13:40:16.515Z,1.50
2018-01-29T13:42:43.088Z,2.00
2018-01-29T13:45:09.735Z,1.53
2018-01-29T13:47:36.469Z,0.97
2018-01-29T13:50:03.152Z,1.37
2018-01-29T13:52:29.747Z,1.27
2018-01-29T13:54:56.388Z,1.10
2018-01-29T13:57:22.993Z,1.10
2018-01-29T13:59:49.592Z,1.33
2018-01-29T14:02:16.698Z,1.10
2018-01-29T14:04:43.291Z,1.40
2018-01-29T14:07:09.894Z,1.67
2018-01-29T14:09:36.976Z,0.97
2018-01-29T14:12:03.576Z,0.83
2018-01-29T14:14:30.592Z,0.60
2018-01-29T14:16:57.244Z,1.83
2018-01-29T14:19:23.870Z,0.90
2018-01-29T14:21:50.465Z,1.33
2018-01-29T14:24:17.117Z,1.00
2018-01-29T14:26:43.744Z,0.90
2018-01-29T14:29:10.434Z,1.00
2018-01-29T14:31:37.558Z,1.10
2018-01-29T14:34:04.096Z,1.03
2018-01-29T14:36:30.726Z,0.80
2018-01-29T14:39:09.973Z,1.20
2018-01-29T14:41:36.598Z,1.33
2018-01-29T14:44:03.250Z,1.40
2018-01-29T14:46:29.920Z,0.80
2018-01-29T14:48:59.967Z,1.00
2018-01-29T14:51:26.611Z,1.20
2018-01-29T14:54:00.338Z,1.53
2018-01-29T14:56:27.021Z,0.83
2018-01-29T15:02:02.244Z,1.00
2018-01-29T15:04:29.768Z,1.60
2018-01-29T15:06:56.395Z,1.00
2018-01-29T15:09:23.403Z,1.27
2018-01-29T15:11:50.072Z,1.33
2018-01-29T15:14:17.771Z,0.80
2018-01-29T15:16:44.366Z,1.17
2018-01-29T15:19:11.077Z,0.80
2018-01-29T15:21:37.691Z,1.07
2018-01-29T15:24:04.323Z,1.00
2018-01-29T15:26:37.088Z,1.10
2018-01-29T15:29:03.667Z,0.93
2018-01-29T15:31:30.686Z,0.77
2018-01-29T15:33:57.303Z,1.00
2018-01-29T15:36:24.372Z,0.60
2018-01-29T15:38:51.315Z,0.90
2018-01-29T15:41:17.883Z,1.00
2018-01-29T15:43:44.552Z,0.87
2018-01-29T15:46:11.192Z,0.57
2018-01-29T15:48:37.854Z,0.87
2018-01-29T15:51:04.456Z,0.57
2018-01-29T15:53:31.088Z,0.60
2018-01-29T15:55:57.784Z,1.10
2018-01-29T15:58:24.394Z,0.30
2018-01-29T16:00:50.987Z,0.50
2018-01-29T16:03:17.624Z,0.60
2018-01-29T16:05:44.207Z,0.43
2018-01-29T16:08:11.195Z,0.40
2018-01-29T16:10:39.763Z,0.73
2018-01-29T16:13:06.398Z,0.60
2018-01-29T16:15:33.427Z,0.53
2018-01-29T16:18:00.492Z,0.60
2018-01-29T16:20:27.091Z,0.83
2018-01-29T16:22:54.108Z,0.50
2018-01-29T16:25:20.778Z,0.90
2018-01-29T16:27:47.410Z,0.80
2018-01-29T16:30:14.381Z,0.70
2018-01-29T16:32:41.471Z,0.60
2018-01-29T16:35:08.144Z,0.93
2018-01-29T16:37:34.821Z,0.70
2018-01-29T16:40:12.471Z,0.60
2018-01-29T16:42:45.536Z,0.60
2018-01-29T16:45:12.199Z,1.10
2018-01-29T16:47:55.661Z,1.00
2018-01-29T16:50:26.454Z,0.50
2018-01-29T16:52:53.065Z,1.20
2018-01-29T16:55:22.852Z,1.27
2018-01-29T16:57:49.804Z,0.77
2018-01-29T17:00:16.452Z,1.00
2018-01-29T17:02:43.105Z,0.80
2018-01-29T17:05:09.770Z,0.80
2018-01-29T17:07:39.918Z,1.20
2018-01-29T17:10:06.916Z,1.17
2018-01-29T17:12:33.494Z,1.13
2018-01-29T17:15:00.149Z,4.63
2018-01-29T17:17:27.216Z,1.47
2018-01-29T17:19:53.791Z,1.00
2018-01-29T17:22:20.472Z,1.17
2018-01-29T17:24:47.521Z,1.10
2018-01-29T17:27:23.720Z,1.23
2018-01-29T17:29:50.310Z,1.23
2018-01-29T17:32:16.940Z,0.60
2018-01-29T17:34:43.565Z,0.80
2018-01-29T17:37:10.217Z,0.53
2018-01-29T17:39:36.903Z,0.70
2018-01-29T17:42:21.264Z,1.30
2018-01-29T17:44:47.923Z,0.53
2018-01-29T17:47:14.517Z,1.03
2018-01-29T17:49:41.181Z,0.80
2018-01-29T17:52:07.816Z,0.60
2018-01-29T17:54:34.489Z,1.70
2018-01-29T17:57:01.137Z,0.80
2018-01-29T17:59:27.757Z,1.23
2018-01-29T18:01:54.392Z,0.27
2018-01-29T18:04:21.051Z,1.53
2018-01-29T18:06:47.723Z,0.97
2018-01-29T18:09:14.699Z,1.60
2018-01-29T18:11:41.286Z,0.77
2018-01-29T18:14:07.860Z,1.77
2018-01-29T18:16:37.928Z,2.00
2018-01-29T18:19:04.589Z,1.03
2018-01-29T18:21:43.011Z,0.67
2018-01-29T18:24:10.009Z,0.50
2018-01-29T18:26:36.660Z,1.30
2018-01-29T18:29:17.213Z,2.43
2018-01-29T18:31:43.883Z,1.10
2018-01-29T18:34:10.936Z,1.23
2018-01-29T18:36:38.096Z,0.63
2018-01-29T18:39:05.168Z,2.07
2018-01-29T18:41:31.914Z,1.53
2018-01-29T18:44:05.497Z,1.40
2018-01-29T18:46:32.412Z,1.57
2018-01-29T18:48:59.021Z,3.50
2018-01-29T18:51:31.141Z,1.03
2018-01-29T18:53:57.816Z,1.43
2018-01-29T18:59:16.624Z,1.37
2018-01-29T19:01:43.662Z,1.63
2018-01-29T19:04:10.297Z,1.63
2018-01-29T19:06:36.941Z,1.63
2018-01-29T19:09:09.681Z,1.17
2018-01-29T19:11:36.353Z,1.73
2018-01-29T19:14:03.009Z,2.47
2018-01-29T19:16:30.091Z,1.63
2018-01-29T19:19:04.801Z,2.43
2018-01-29T19:24:28.441Z,1.60
2018-01-29T19:26:55.394Z,1.93
2018-01-29T19:29:46.089Z,1.60
2018-01-29T19:32:13.195Z,2.07
2018-01-29T19:34:58.132Z,2.40
2018-01-29T19:37:35.307Z,1.90
2018-01-29T19:40:10.639Z,3.27
2018-01-29T19:42:57.560Z,3.80
2018-01-29T19:45:44.433Z,3.20
2018-01-29T19:48:11.035Z,8.63
2018-01-29T19:50:38.087Z,1.40
2018-01-29T19:53:09.637Z,1.20
2018-01-29T19:55:49.189Z,1.90
2018-01-29T20:01:05.928Z,1.47
2018-01-29T20:03:32.641Z,1.13
2018-01-29T20:08:51.995Z,2.10
2018-01-29T20:11:18.614Z,0.47
2018-01-29T20:13:45.198Z,1.60
2018-01-29T20:16:11.856Z,2.20
2018-01-29T20:18:38.942Z,2.20
2018-01-29T20:21:05.562Z,1.50
2018-01-29T20:23:32.199Z,2.33
2018-01-29T20:25:58.787Z,2.70
2018-01-29T20:28:25.395Z,1.40
2018-01-29T20:30:51.993Z,2.53
2018-01-29T20:33:18.590Z,2.37
2018-01-29T20:35:59.911Z,2.20
2018-01-29T20:38:26.955Z,0.93
2018-01-29T20:40:53.590Z,1.47
2018-01-29T20:43:20.575Z,2.10
2018-01-29T20:45:47.178Z,2.10
2018-01-29T20:48:13.857Z,0.93
2018-01-29T20:50:40.422Z,1.67
2018-01-29T20:53:07.002Z,0.97
2018-01-29T20:55:33.626Z,1.63
2018-01-29T20:58:00.630Z,1.37
2018-01-29T21:00:27.251Z,2.17
2018-01-29T21:02:54.191Z,1.67
2018-01-29T21:05:20.760Z,1.10
2018-01-29T21:07:47.411Z,0.87
2018-01-29T21:10:14.136Z,1.30
2018-01-29T21:12:40.758Z,1.27
2018-01-29T21:15:07.441Z,1.33
2018-01-29T21:17:34.499Z,1.03
2018-01-29T21:20:01.503Z,2.17
2018-01-29T21:22:28.169Z,1.23
2018-01-29T21:24:54.763Z,1.70
2018-01-29T21:27:21.368Z,1.47
2018-01-29T21:29:48.456Z,1.27
2018-01-29T21:32:15.031Z,1.23
2018-01-29T21:34:41.998Z,1.30
2018-01-29T21:37:09.111Z,1.77
2018-01-29T21:39:35.710Z,0.53
2018-01-29T21:42:02.342Z,1.37
2018-01-29T21:47:24.703Z,1.13
2018-01-29T21:49:51.305Z,2.53
2018-01-29T21:52:18.333Z,2.17
2018-01-29T21:54:45.295Z,2.50
2018-01-29T21:57:12.264Z,1.33
2018-01-29T21:59:38.929Z,2.07
2018-01-29T22:02:05.519Z,2.00
2018-01-29T22:04:32.130Z,0.40
2018-01-29T22:06:58.766Z,1.43
2018-01-29T22:09:25.440Z,0.93
2018-01-29T22:11:52.459Z,1.97
2018-01-29T22:14:19.087Z,1.10
2018-01-29T22:16:45.781Z,2.23
2018-01-29T22:19:12.358Z,1.90
2018-01-29T22:21:38.980Z,2.87
2018-01-29T22:24:05.579Z,1.97
2018-01-29T22:26:32.569Z,1.10
2018-01-29T22:28:59.479Z,1.90
2018-01-29T22:31:26.068Z,1.30
2018-01-29T22:33:52.717Z,2.53
2018-01-29T22:36:19.629Z,2.00
2018-01-29T22:38:46.287Z,1.87
2018-01-29T22:41:12.870Z,0.43
2018-01-29T22:43:39.500Z,1.70
2018-01-29T22:46:06.508Z,0.87
2018-01-29T22:48:51.806Z,1.97
2018-01-29T22:51:18.419Z,2.60
2018-01-29T22:53:45.020Z,3.27
2018-01-29T22:56:28.091Z,2.07
2018-01-29T22:58:54.707Z,1.03
2018-01-29T23:01:21.617Z,1.03
2018-01-29T23:03:48.192Z,0.93
2018-01-29T23:06:14.788Z,1.90
2018-01-29T23:08:41.397Z,1.57
2018-01-29T23:11:08.382Z,2.73
2018-01-29T23:13:35.068Z,2.00
2018-01-29T23:16:01.647Z,3.27
2018-01-29T23:18:28.649Z,1.30
2018-01-29T23:20:55.283Z,1.60
2018-01-29T23:23:21.880Z,0.63
2018-01-29T23:25:48.502Z,1.47
2018-01-29T23:28:17.385Z,1.30
2018-01-29T23:30:45.342Z,2.83
2018-01-29T23:33:12.000Z,1.73
2018-01-29T23:35:39.101Z,0.63
2018-01-29T23:38:05.709Z,2.20
2018-01-29T23:40:46.836Z,0.93
2018-01-29T23:43:13.418Z,0.70
2018-01-29T23:45:40.025Z,2.20
2018-01-29T23:48:07.073Z,1.40
2018-01-29T23:50:34.063Z,2.80
2018-01-29T23:53:02.633Z,2.00
2018-01-29T23:55:29.307Z,1.40
2018-01-29T23:57:55.917Z,0.87
